Werner Enterprises Inc (WERN) Latest Bloomsberg Price


Mffais Ranking #2213 Overall / #10 Industry
Industry: Trucking

Number of Companies: 109 (Ranking #1532 Overall/#6 Industry)
Inflow: $ 23,832 (K) (Ranking #1670 Overall/#8 Industry)
Outflow: $ -58,229 (K)
Mffais Flow: $ -34,397 (K) (Ranking #2213 Overall/#10 Industry)


Receive a FREE weekly executive review of stocks moving into the top 10, taking the top industy spot or moving up within their industry. Sent directly to your Inbox every Saturday. Sign up today and get last week's review immediately sent to you.

We value and respect your privacy. Please read our Terms and Conditions which states our firm commitment to your privacy. Your email address will not be shared with a third party, nor will it be sold or used for purposes other than subscription for the weekly review.

Owner CPOR Shares Action Qty Chg Invested (K) Total Current Value (K)
Weiss Multi-Strategy Advisers Llc 2016-09-30 547,061 Added More 466,669 $ 11,377 $ 13,337
Heartland Advisors Inc 2016-09-30 594,735 Added More 142,850 $ 3,482 $ 14,499
Buckingham Capital Management Inc 2016-09-30 85,800 New Holding 85,800 $ 2,091 $ 2,091
Stevens Capital Management Lp 2016-09-30 61,038 New Holding 61,038 $ 1,488 $ 1,488
Dimensional Fund Advisors Lp 2016-09-30 4,831,921 Added More 45,842 $ 1,117 $ 117,802
Cipher Capital Lp 2016-09-30 164,596 Added More 44,442 $ 1,083 $ 4,012
Highbridge Capital Management Llc 2016-09-30 40,100 New Holding 40,100 $ 977 $ 977
Airain Ltd 2016-09-30 18,079 New Holding 18,079 $ 440 $ 440
First Mercantile Trust Co 2016-09-30 11,330 New Holding 11,330 $ 276 $ 276
Quadrature Capital Ltd 2016-09-30 10,495 New Holding 10,495 $ 255 $ 255
Green Square Capital Llc 2016-09-30 9,629 New Holding 9,629 $ 234 $ 234
Rhumbline Advisers 2016-09-30 120,154 Added More 7,640 $ 186 $ 2,929
Speece Thorson Capital Group Inc 2016-09-30 611,811 Added More 6,070 $ 147 $ 14,915
Northern Trust Corp 2016-09-30 720,559 Added More 6,068 $ 147 $ 17,567
Pacad Investment Ltd 2016-09-30 3,200 New Holding 3,200 $ 78 $ 78
Fdx Advisors Inc 2016-09-30 21,669 Added More 3,012 $ 73 $ 528
Ngam Advisors L P 2016-09-30 155,336 Added More 2,094 $ 51 $ 3,787
Blackrock Investment Management Llc 2016-09-30 293,128 Added More 2,077 $ 50 $ 7,146
Rowland Co Investment Counsel Adv 2016-09-30 106,004 Added More 2,035 $ 49 $ 2,584
Mutual Of America Capital Management Llc 2016-09-30 33,205 Added More 1,660 $ 40 $ 809
Blackrock Inc 2016-09-30 26,901 Added More 1,516 $ 36 $ 655
Springbok Capital Management Llc 2016-09-30 1,241 New Holding 1,241 $ 30 $ 30
Aston Asset Management Llc 2016-06-30 49,492 Added More 1,018 $ 23 $ 1,136
California State Teachers Retirement System 2016-09-30 94,609 Added More 900 $ 21 $ 2,306
Simplex Trading Llc 2016-09-30 639 New Holding 639 $ 15 $ 15
Plante Moran Financial Advisors Llc 2016-09-30 588 New Holding 588 $ 14 $ 14
Oregon Public Employees Retirement Fund 2016-09-30 15,043 Added More 308 $ 7 $ 366
Mason Street Advisors Llc 2016-09-30 20,671 Added More 301 $ 7 $ 503
Coyle Financial Counsel Llc 2016-09-30 29,967 Added More 293 $ 7 $ 730
Zurcher Kantonalbank Zurich Cantonalbank 2016-09-30 1,295 Added More 246 $ 5 $ 31
Ls Investment Advisors Llc 2016-09-30 2,850 Added More 153 $ 3 $ 69
State Treasurer State Of Michigan 2016-09-30 17,975 Added More 100 $ 2 $ 438
Advisor Group Inc 2016-09-30 1,511 Added More 67 $ 1 $ 36
Hsbc Holdings Plc 2016-09-30 10,972 Added More 48 $ 1 $ 267
Weaver C Barksdale Associates Inc 2016-09-30 413 Added More 33 $ 0 $ 10
Sei Investments Co 2016-09-30 42 Added More 21 $ 0 $ 1
Advantus Capital Management Inc 2016-09-30 5,409 No Change 0 $ 0 $ 131
Teachers Retirement System Of The State Of Kentucky 2016-09-30 9,000 No Change 0 $ 0 $ 219
Panagora Asset Management Inc 2016-09-30 1,936 No Change 0 $ 0 $ 47
Re Advisers Corp 2016-09-30 1,879,306 No Change 0 $ 0 $ 45,817
Ladenburg Thalmann Financial Services Inc 2016-09-30 551 No Change 0 $ 0 $ 13
Markston International Llc 2016-09-30 480 No Change 0 $ 0 $ 11
Farmers Merchants Investments Inc 2016-09-30 1,561 No Change 0 $ 0 $ 38
America First Investment Advisors Llc 2016-09-30 2,000 No Change 0 $ 0 $ 48
Qs Investors Llc 2016-09-30 13 No Change 0 $ 0 $ 0
Nuveen Asset Management Llc 2016-09-30 29,032 No Change 0 $ 0 $ 707
Wfg Advisors Lp 2016-09-30 700 No Change 0 $ 0 $ 17
Creative Planning 2016-09-30 16,500 No Change 0 $ 0 $ 402
Arizona State Retirement System 2016-09-30 17,405 No Change 0 $ 0 $ 424
Capital Impact Advisors Llc 2016-09-30 33,900 No Change 0 $ 0 $ 826
Quadrant Capital Group Llc 2016-09-30 370 No Change 0 $ 0 $ 9
Northwestern Mutual Investment Management Company Llc 2016-09-30 7,693 Sold Some -13 $ -0 $ 187
Retirement Systems Of Alabama 2016-09-30 57,571 Sold Some -48 $ -1 $ 1,403
American International Group Inc 2016-09-30 110,719 Sold Some -50 $ -1 $ 2,699
Us Bancorp De 2016-09-30 5,558 Sold Some -64 $ -1 $ 135
Keybank National Association Oh 2016-09-30 34,113 Sold Some -100 $ -2 $ 831
Texas Permanent School Fund 2016-09-30 34,034 Sold Some -120 $ -2 $ 829
Aperio Group Llc 2016-09-30 25,113 Sold Some -164 $ -3 $ 612
First Republic Investment Management Inc 2016-09-30 10,254 Sold Some -178 $ -4 $ 249
Pnc Financial Services Group Inc 2016-09-30 0 Sold All -268 $ -6 $ 0
Legal General Group Plc 2016-09-30 12,467 Sold Some -294 $ -7 $ 303
New York State Teachers Retirement System 2016-09-30 79,591 Sold Some -300 $ -7 $ 1,940
Advisors Asset Management Inc 2016-09-30 6,969 Sold Some -331 $ -8 $ 169
Teachers Advisors Inc 2016-09-30 70,433 Sold Some -392 $ -9 $ 1,717
Emerald Acquisition Ltd 2016-09-30 578 Sold Some -578 $ -14 $ 14
Vident Investment Advisory Llc 2016-09-30 94,743 Sold Some -671 $ -16 $ 2,309
Cutler Group Lp 2016-09-30 1,623 Sold Some -750 $ -18 $ 39
Tdam Usa Inc 2016-09-30 45,376 Sold Some -790 $ -19 $ 1,106
Liberty Mutual Group Asset Management Inc 2016-09-30 18,529 Sold Some -861 $ -20 $ 451
Nisa Investment Advisors Llc 2016-09-30 23,300 Sold Some -1,000 $ -24 $ 568
Horizon Kinetics Llc 2016-09-30 17,555 Sold Some -1,824 $ -44 $ 427
Swiss National Bank 2016-09-30 74,100 Sold Some -2,400 $ -58 $ 1,806
Leuthold Group Llc 2016-09-30 25,032 Sold Some -2,761 $ -67 $ 610
New York State Common Retirement Fund 2016-09-30 76,600 Sold Some -2,806 $ -68 $ 1,867
Tower Research Capital Llc Trc 2016-09-30 1,042 Sold Some -3,055 $ -74 $ 25
12th Street Asset Management Company Llc 2016-09-30 243,805 Sold Some -3,111 $ -75 $ 5,943
Cubist Systematic Strategies Llc 2016-09-30 0 Sold All -3,768 $ -91 $ 0
Kennedy Capital Management Inc 2016-09-30 217,380 Sold Some -4,489 $ -109 $ 5,299
Sg Americas Securities Llc 2016-09-30 9,526 Sold Some -5,377 $ -131 $ 232
Teacher Retirement System Of Texas 2016-09-30 0 Sold All -6,514 $ -158 $ 0
Feltz Wealth Plan Inc 2016-09-30 1,401 Sold Some -6,589 $ -160 $ 34
Gsa Capital Partners Llp 2016-09-30 42,800 Sold Some -8,000 $ -195 $ 1,043
Princeton Alpha Management Lp 2016-09-30 0 Sold All -8,760 $ -213 $ 0
Proshare Advisors Llc 2016-09-30 0 Sold All -9,164 $ -223 $ 0
Profund Advisors Llc 2016-09-30 0 Sold All -9,490 $ -231 $ 0
Great Lakes Advisors Llc 2016-09-30 181,734 Sold Some -9,719 $ -236 $ 4,430
Stoneridge Investment Partners Llc 2016-09-30 0 Sold All -11,300 $ -275 $ 0
Symphony Asset Management Llc 2016-09-30 0 Sold All -11,380 $ -277 $ 0
Comerica Bank 2016-09-30 135,848 Sold Some -11,962 $ -291 $ 3,311
Parametric Portfolio Associates Llc 2016-09-30 140,724 Sold Some -15,061 $ -367 $ 3,430
Engineers Gate Manager Lp 2016-09-30 0 Sold All -15,920 $ -388 $ 0
Jacobs Levy Equity Management Inc 2016-09-30 0 Sold All -18,101 $ -441 $ 0
Luminus Management Llc 2016-09-30 72,135 Sold Some -19,690 $ -480 $ 1,758
Axa 2016-09-30 0 Sold All -24,030 $ -585 $ 0
Meeder Asset Management Inc 2016-09-30 0 Sold All -24,138 $ -588 $ 0
Fisher Asset Management Llc 2016-09-30 91,276 Sold Some -27,413 $ -668 $ 2,225
Shinko Asset Management Co Ltd 2016-09-30 91,130 Sold Some -27,559 $ -671 $ 2,221
Nationwide Fund Advisors 2016-09-30 495,283 Sold Some -28,540 $ -695 $ 12,075
Alambic Investment Management L P 2016-09-30 0 Sold All -38,200 $ -931 $ 0
Walleye Trading Llc 2016-09-30 3,383 Sold Some -41,921 $ -1,022 $ 82
Envestnet Asset Management Inc 2016-09-30 14,602 Sold Some -46,921 $ -1,143 $ 355
Guggenheim Capital Llc 2016-09-30 318,635 Sold Some -52,693 $ -1,284 $ 7,768
Scopus Asset Management L P 2016-09-30 0 Sold All -100,000 $ -2,438 $ 0
Capital Fund Management S A 2016-09-30 0 Sold All -104,000 $ -2,535 $ 0
Piermont Capital Management Inc 2016-09-30 0 Sold All -106,369 $ -2,593 $ 0
Fairpointe Capital Llc 2016-09-30 3,269,211 Sold Some -129,393 $ -3,154 $ 79,703
Wcm Investment Management Ca 2016-09-30 0 Sold All -267,960 $ -6,532 $ 0
Grantham Mayo Van Otterloo Co Llc 2016-09-30 745,990 Sold Some -317,268 $ -7,734 $ 18,187
Royce Associates Lp 2016-09-30 880,931 Sold Some -853,796 $ -20,815 $ 21,477